Austin Tobin — WDG2935 — position and weather

sailwx.info

Track history (hours):
 
Tides and Currents Weather Stations Pressure Air Temp Water Temp Dewpoint Dewpoint Depression Visibility Wind Speed Wind Dir Waves Ship Positions

Austin Tobin

Owner: PORT IMPERIAL FERRY, WEEHAWKEN, NJ. More information available from US FCC via Universal Licensing System and Coast Guard Vessel Documentation Center.

Last reported at 2017-Dec-11 17:01 UTC. Time now 2017-Dec-14 15:11 UTC.
Position N 40°42' W 074°00'.

Length 21 m; draft 2 m.

Type: Passenger vessel. MMSI: 366834150.

Date/timePositionNaut miles runAvg speedWind from/ knotsBaromVisibWave heightAir tempDewpointWater temp
2017-Dec-11 17:01N 40°42' W 074°00'1 2.8
2017-Dec-11 16:30N 40°43' W 074°02'1 2.7
2017-Dec-11 16:00N 40°42' W 074°00'1 2.7
2017-Dec-11 15:31N 40°43' W 074°02'1 2.6
2017-Dec-11 15:00N 40°42' W 074°00'2 3.5
2017-Dec-11 14:30N 40°43' W 074°03'0 0.0
2017-Dec-11 14:00N 40°43' W 074°03'0 0.0
2017-Dec-11 13:31N 40°43' W 074°03'0 0.0
2017-Dec-11 13:01N 40°43' W 074°03'0 0.0
2017-Dec-11 12:30N 40°43' W 074°03'0 0.0
2017-Dec-11 12:00N 40°43' W 074°03'0 0.0
2017-Dec-11 11:30N 40°43' W 074°03'0 0.0
2017-Dec-11 11:00N 40°43' W 074°03'0 0.0
2017-Dec-11 10:30N 40°43' W 074°03'  
2017-Dec-09 02:51N 40°43' W 074°03'2 5.6
2017-Dec-09 02:31N 40°41' W 074°03'2 3.8
2017-Dec-09 02:00N 40°42' W 074°01'1 3.0
2017-Dec-09 01:30N 40°41' W 074°02'2 3.1
2017-Dec-09 01:00N 40°42' W 074°01'0 0.6
2017-Dec-09 00:30N 40°42' W 074°00'0 0.0
2017-Dec-09 00:01N 40°42' W 074°00'0 0.2
2017-Dec-08 23:31N 40°42' W 074°00'0 0.2
2017-Dec-08 23:00N 40°42' W 074°00'0 0.0
2017-Dec-08 22:30N 40°42' W 074°00'0 0.2
2017-Dec-08 22:01N 40°42' W 074°00'0 0.2
2017-Dec-08 21:30N 40°42' W 074°00'0 0.1
2017-Dec-08 21:00N 40°42' W 074°00'1 2.7
2017-Dec-08 20:30N 40°43' W 074°02'1 2.6
2017-Dec-08 20:00N 40°42' W 074°00'0 0.0
2017-Dec-08 19:19N 40°42' W 074°00'0 0.1
2017-Dec-08 19:00N 40°42' W 074°00'2 4.4
2017-Dec-08 18:30N 40°44' W 074°02'2 0.8
2017-Dec-08 15:29N 40°46' W 074°01'4 9.1
2017-Dec-08 15:00N 40°42' W 074°00'0 0.3
2017-Dec-08 14:31N 40°42' W 074°00'0 0.0
2017-Dec-08 14:00N 40°42' W 074°00'0 0.0
2017-Dec-08 13:30N 40°42' W 074°00'0 0.0
2017-Dec-08 13:01N 40°42' W 074°00'0 0.0
2017-Dec-08 12:31N 40°42' W 074°00'0 0.0
2017-Dec-08 12:00N 40°42' W 074°00'0 0.2
2017-Dec-08 11:30N 40°42' W 074°00'1 2.4
2017-Dec-08 11:00N 40°43' W 074°02'4 0.4
2017-Dec-08 01:40N 40°46' W 074°01'212.0
2017-Dec-08 01:30N 40°45' W 074°01'2 4.8
2017-Dec-08 01:01N 40°42' W 074°00'2 3.5
2017-Dec-08 00:30N 40°43' W 074°03'0 0.0
2017-Dec-08 00:01N 40°43' W 074°03'0 0.0
2017-Dec-07 23:30N 40°43' W 074°03'0 0.0
2017-Dec-07 23:00N 40°43' W 074°03'0 0.0
2017-Dec-07 22:30N 40°43' W 074°03'0 0.1
2017-Dec-07 22:00N 40°43' W 074°03'0 0.0
2017-Dec-07 21:30N 40°43' W 074°03'1 1.0
2017-Dec-07 21:01N 40°43' W 074°02'4 7.0
2017-Dec-07 20:30N 40°46' W 074°01'0 0.0
2017-Dec-07 18:59N 40°46' W 074°01'4 7.6
2017-Dec-07 18:31N 40°43' W 074°02'1 2.5
2017-Dec-07 18:00N 40°42' W 074°00'1 2.5
2017-Dec-07 17:31N 40°43' W 074°02'1 2.5
2017-Dec-07 17:01N 40°42' W 074°00'1 2.7
2017-Dec-07 16:30N 40°43' W 074°02'1 2.6
2017-Dec-07 16:01N 40°42' W 074°00'1 2.7
2017-Dec-07 15:30N 40°43' W 074°02'0 0.1
2017-Dec-07 15:00N 40°43' W 074°02'0 1.0
2017-Dec-07 14:30N 40°43' W 074°03'0 0.0
2017-Dec-07 14:01N 40°43' W 074°03'0 0.0
2017-Dec-07 13:30N 40°43' W 074°03'0 0.0
2017-Dec-07 13:00N 40°43' W 074°03'0 0.0
2017-Dec-07 12:30N 40°43' W 074°03'0 0.0
2017-Dec-07 12:00N 40°43' W 074°03'0 0.0
2017-Dec-07 11:30N 40°43' W 074°03'0 0.0
2017-Dec-07 11:00N 40°43' W 074°03'0 0.0
2017-Dec-07 10:30N 40°43' W 074°03'1 0.1
2017-Dec-07 02:45N 40°43' W 074°02'1 5.6
2017-Dec-07 02:30N 40°41' W 074°02'1 1.6
2017-Dec-07 02:01N 40°42' W 074°01'1 1.8
2017-Dec-07 01:31N 40°41' W 074°01'1 1.9
2017-Dec-07 01:00N 40°42' W 074°01'0 0.6
2017-Dec-07 00:31N 40°42' W 074°00'0 0.2
2017-Dec-07 00:01N 40°42' W 074°00'0 0.2
2017-Dec-06 23:30N 40°42' W 074°00'0 0.2
2017-Dec-06 23:00N 40°42' W 074°00'0 0.2
2017-Dec-06 22:30N 40°42' W 074°00'0 0.0
2017-Dec-06 22:00N 40°42' W 074°00'0 0.1
2017-Dec-06 21:31N 40°42' W 074°00'0 0.2
2017-Dec-06 21:00N 40°42' W 074°00'  
2017-Dec-04 10:30N 40°46' W 074°01'0 0.0
2017-Dec-04 10:00N 40°46' W 074°01'0 0.0
2017-Dec-04 09:30N 40°46' W 074°01'0 0.0
2017-Dec-04 09:00N 40°46' W 074°01'0 0.0
2017-Dec-04 08:30N 40°46' W 074°01'0 0.0
2017-Dec-04 08:00N 40°46' W 074°01'0 0.0
2017-Dec-04 07:30N 40°46' W 074°01'0 0.0
2017-Dec-04 07:00N 40°46' W 074°01'0 0.0
2017-Dec-03 09:06N 40°46' W 074°01'0 0.1
2017-Dec-03 09:00N 40°46' W 074°01'0 0.0
2017-Dec-02 17:31N 40°46' W 074°01'0 0.5
2017-Dec-02 17:30N 40°46' W 074°01'4 7.6
2017-Dec-02 17:00N 40°43' W 074°01'1 2.8
2017-Dec-02 16:30N 40°44' W 074°02'0 0.0
2017-Dec-02 16:00N 40°44' W 074°02'0 0.0
2017-Dec-02 15:30N 40°44' W 074°02'0 0.0
2017-Dec-02 15:00N 40°44' W 074°02'0 0.0
2017-Dec-02 14:30N 40°44' W 074°02'0 0.0
2017-Dec-02 14:00N 40°44' W 074°02'0 0.0
2017-Dec-02 13:30N 40°44' W 074°02'0 0.0
2017-Dec-02 13:00N 40°44' W 074°02'2 2.3
2017-Dec-02 12:04N 40°42' W 074°01'0 7.1
2017-Dec-02 12:00N 40°42' W 074°01'0 0.1
2017-Dec-02 11:31N 40°42' W 074°01'5 9.3
2017-Dec-02 11:00N 40°46' W 074°01'0 0.0
2017-Dec-02 01:28N 40°46' W 074°01'4 9.2
2017-Dec-02 01:01N 40°42' W 074°00'2 3.3
2017-Dec-02 00:30N 40°43' W 074°02'0 0.1
2017-Dec-02 00:00N 40°43' W 074°03'0 0.2
2017-Dec-01 23:30N 40°43' W 074°03'0 0.2
2017-Dec-01 23:00N 40°43' W 074°02'0 0.2
2017-Dec-01 22:31N 40°43' W 074°03'0 0.0
2017-Dec-01 22:00N 40°43' W 074°03'0 0.0
2017-Dec-01 21:30N 40°43' W 074°03'1 1.0
2017-Dec-01 21:00N 40°43' W 074°02'4 7.0
2017-Dec-01 20:30N 40°46' W 074°01'0 0.0
2017-Dec-01 20:00N 40°46' W 074°01'0 0.0
2017-Dec-01 19:31N 40°46' W 074°01'2 3.2
2017-Dec-01 19:00N 40°45' W 074°01'2 3.9
2017-Dec-01 18:30N 40°43' W 074°02'1 2.6
2017-Dec-01 18:00N 40°42' W 074°00'1 2.6
2017-Dec-01 17:30N 40°43' W 074°02'  
Track history (hours):
 
Tides and Currents Weather Stations Pressure Air Temp Water Temp Dewpoint Dewpoint Depression Visibility Wind Speed Wind Dir Waves Ship Positions

Austin Tobin

Owner: PORT IMPERIAL FERRY, WEEHAWKEN, NJ. More information available from US FCC via Universal Licensing System and Coast Guard Vessel Documentation Center.

Last reported at 2017-Dec-11 17:01 UTC. Time now 2017-Dec-14 15:11 UTC.
Position N 40°42' W 074°00'.

Length 21 m; draft 2 m.

Type: Passenger vessel. MMSI: 366834150.

Date/timePositionNaut miles runAvg speedWind from/ knotsBaromVisibWave heightAir tempDewpointWater temp
2017-Dec-11 17:01N 40°42' W 074°00'1 2.8
2017-Dec-11 16:30N 40°43' W 074°02'1 2.7
2017-Dec-11 16:00N 40°42' W 074°00'1 2.7
2017-Dec-11 15:31N 40°43' W 074°02'1 2.6
2017-Dec-11 15:00N 40°42' W 074°00'2 3.5
2017-Dec-11 14:30N 40°43' W 074°03'0 0.0
2017-Dec-11 14:00N 40°43' W 074°03'0 0.0
2017-Dec-11 13:31N 40°43' W 074°03'0 0.0
2017-Dec-11 13:01N 40°43' W 074°03'0 0.0
2017-Dec-11 12:30N 40°43' W 074°03'0 0.0
2017-Dec-11 12:00N 40°43' W 074°03'0 0.0
2017-Dec-11 11:30N 40°43' W 074°03'0 0.0
2017-Dec-11 11:00N 40°43' W 074°03'0 0.0
2017-Dec-11 10:30N 40°43' W 074°03'  
2017-Dec-09 02:51N 40°43' W 074°03'2 5.6
2017-Dec-09 02:31N 40°41' W 074°03'2 3.8
2017-Dec-09 02:00N 40°42' W 074°01'1 3.0
2017-Dec-09 01:30N 40°41' W 074°02'2 3.1
2017-Dec-09 01:00N 40°42' W 074°01'0 0.6
2017-Dec-09 00:30N 40°42' W 074°00'0 0.0
2017-Dec-09 00:01N 40°42' W 074°00'0 0.2
2017-Dec-08 23:31N 40°42' W 074°00'0 0.2
2017-Dec-08 23:00N 40°42' W 074°00'0 0.0
2017-Dec-08 22:30N 40°42' W 074°00'0 0.2
2017-Dec-08 22:01N 40°42' W 074°00'0 0.2
2017-Dec-08 21:30N 40°42' W 074°00'0 0.1
2017-Dec-08 21:00N 40°42' W 074°00'1 2.7
2017-Dec-08 20:30N 40°43' W 074°02'1 2.6
2017-Dec-08 20:00N 40°42' W 074°00'0 0.0
2017-Dec-08 19:19N 40°42' W 074°00'0 0.1
2017-Dec-08 19:00N 40°42' W 074°00'2 4.4
2017-Dec-08 18:30N 40°44' W 074°02'2 0.8
2017-Dec-08 15:29N 40°46' W 074°01'4 9.1
2017-Dec-08 15:00N 40°42' W 074°00'0 0.3
2017-Dec-08 14:31N 40°42' W 074°00'0 0.0
2017-Dec-08 14:00N 40°42' W 074°00'0 0.0
2017-Dec-08 13:30N 40°42' W 074°00'0 0.0
2017-Dec-08 13:01N 40°42' W 074°00'0 0.0
2017-Dec-08 12:31N 40°42' W 074°00'0 0.0
2017-Dec-08 12:00N 40°42' W 074°00'0 0.2
2017-Dec-08 11:30N 40°42' W 074°00'1 2.4
2017-Dec-08 11:00N 40°43' W 074°02'4 0.4
2017-Dec-08 01:40N 40°46' W 074°01'212.0
2017-Dec-08 01:30N 40°45' W 074°01'2 4.8
2017-Dec-08 01:01N 40°42' W 074°00'2 3.5
2017-Dec-08 00:30N 40°43' W 074°03'0 0.0
2017-Dec-08 00:01N 40°43' W 074°03'0 0.0
2017-Dec-07 23:30N 40°43' W 074°03'0 0.0
2017-Dec-07 23:00N 40°43' W 074°03'0 0.0
2017-Dec-07 22:30N 40°43' W 074°03'0 0.1
2017-Dec-07 22:00N 40°43' W 074°03'0 0.0
2017-Dec-07 21:30N 40°43' W 074°03'1 1.0
2017-Dec-07 21:01N 40°43' W 074°02'4 7.0
2017-Dec-07 20:30N 40°46' W 074°01'0 0.0
2017-Dec-07 18:59N 40°46' W 074°01'4 7.6
2017-Dec-07 18:31N 40°43' W 074°02'1 2.5
2017-Dec-07 18:00N 40°42' W 074°00'1 2.5
2017-Dec-07 17:31N 40°43' W 074°02'1 2.5
2017-Dec-07 17:01N 40°42' W 074°00'1 2.7
2017-Dec-07 16:30N 40°43' W 074°02'1 2.6
2017-Dec-07 16:01N 40°42' W 074°00'1 2.7
2017-Dec-07 15:30N 40°43' W 074°02'0 0.1
2017-Dec-07 15:00N 40°43' W 074°02'0 1.0
2017-Dec-07 14:30N 40°43' W 074°03'0 0.0
2017-Dec-07 14:01N 40°43' W 074°03'0 0.0
2017-Dec-07 13:30N 40°43' W 074°03'0 0.0
2017-Dec-07 13:00N 40°43' W 074°03'0 0.0
2017-Dec-07 12:30N 40°43' W 074°03'0 0.0
2017-Dec-07 12:00N 40°43' W 074°03'0 0.0
2017-Dec-07 11:30N 40°43' W 074°03'0 0.0
2017-Dec-07 11:00N 40°43' W 074°03'0 0.0
2017-Dec-07 10:30N 40°43' W 074°03'1 0.1
2017-Dec-07 02:45N 40°43' W 074°02'1 5.6
2017-Dec-07 02:30N 40°41' W 074°02'1 1.6
2017-Dec-07 02:01N 40°42' W 074°01'1 1.8
2017-Dec-07 01:31N 40°41' W 074°01'1 1.9
2017-Dec-07 01:00N 40°42' W 074°01'0 0.6
2017-Dec-07 00:31N 40°42' W 074°00'0 0.2
2017-Dec-07 00:01N 40°42' W 074°00'0 0.2
2017-Dec-06 23:30N 40°42' W 074°00'0 0.2
2017-Dec-06 23:00N 40°42' W 074°00'0 0.2
2017-Dec-06 22:30N 40°42' W 074°00'0 0.0
2017-Dec-06 22:00N 40°42' W 074°00'0 0.1
2017-Dec-06 21:31N 40°42' W 074°00'0 0.2
2017-Dec-06 21:00N 40°42' W 074°00'  
2017-Dec-04 10:30N 40°46' W 074°01'0 0.0
2017-Dec-04 10:00N 40°46' W 074°01'0 0.0
2017-Dec-04 09:30N 40°46' W 074°01'0 0.0
2017-Dec-04 09:00N 40°46' W 074°01'0 0.0
2017-Dec-04 08:30N 40°46' W 074°01'0 0.0
2017-Dec-04 08:00N 40°46' W 074°01'0 0.0
2017-Dec-04 07:30N 40°46' W 074°01'0 0.0
2017-Dec-04 07:00N 40°46' W 074°01'0 0.0
2017-Dec-03 09:06N 40°46' W 074°01'0 0.1
2017-Dec-03 09:00N 40°46' W 074°01'0 0.0
2017-Dec-02 17:31N 40°46' W 074°01'0 0.5
2017-Dec-02 17:30N 40°46' W 074°01'4 7.6
2017-Dec-02 17:00N 40°43' W 074°01'1 2.8
2017-Dec-02 16:30N 40°44' W 074°02'0 0.0
2017-Dec-02 16:00N 40°44' W 074°02'0 0.0
2017-Dec-02 15:30N 40°44' W 074°02'0 0.0
2017-Dec-02 15:00N 40°44' W 074°02'0 0.0
2017-Dec-02 14:30N 40°44' W 074°02'0 0.0
2017-Dec-02 14:00N 40°44' W 074°02'0 0.0
2017-Dec-02 13:30N 40°44' W 074°02'0 0.0
2017-Dec-02 13:00N 40°44' W 074°02'2 2.3
2017-Dec-02 12:04N 40°42' W 074°01'0 7.1
2017-Dec-02 12:00N 40°42' W 074°01'0 0.1
2017-Dec-02 11:31N 40°42' W 074°01'5 9.3
2017-Dec-02 11:00N 40°46' W 074°01'0 0.0
2017-Dec-02 01:28N 40°46' W 074°01'4 9.2
2017-Dec-02 01:01N 40°42' W 074°00'2 3.3
2017-Dec-02 00:30N 40°43' W 074°02'0 0.1
2017-Dec-02 00:00N 40°43' W 074°03'0 0.2
2017-Dec-01 23:30N 40°43' W 074°03'0 0.2
2017-Dec-01 23:00N 40°43' W 074°02'0 0.2
2017-Dec-01 22:31N 40°43' W 074°03'0 0.0
2017-Dec-01 22:00N 40°43' W 074°03'0 0.0
2017-Dec-01 21:30N 40°43' W 074°03'1 1.0
2017-Dec-01 21:00N 40°43' W 074°02'4 7.0
2017-Dec-01 20:30N 40°46' W 074°01'0 0.0
2017-Dec-01 20:00N 40°46' W 074°01'0 0.0
2017-Dec-01 19:31N 40°46' W 074°01'2 3.2
2017-Dec-01 19:00N 40°45' W 074°01'2 3.9
2017-Dec-01 18:30N 40°43' W 074°02'1 2.6
2017-Dec-01 18:00N 40°42' W 074°00'1 2.6
2017-Dec-01 17:30N 40°43' W 074°02'  

Dump ship's entire track history